KMCE/MCE METAR and TAF weather

Enter ICAO airport designator
Station Type Date Time Source
KMCE METAR 2021/09/25 11:53 UTC NOAA

KMCE 251153Z AUTO 00000KT 9SM CLR 16/11 A2991 RMK AO2 SLP126 T01610111 10233 20161 56001


Station Type Date Time Source
KMCE Decoded METAR 2021/09/25 11:53 UTC NOAA

MERCED MUNICIPAL AIRPORT, CA, United States (KMCE) 37-17N 120-30W 47M
Sep 25, 2021 - 07:53 AM EDT / 2021.09.25 1153 UTC
Wind: Calm:0
Visibility: 9 mile(s):0
Sky conditions: clear
Temperature: 61.0 F (16.1 C)
Dew Point: 52.0 F (11.1 C)
Relative Humidity: 72%
Pressure (altimeter): 29.91 in. Hg (1012 hPa)
Pressure tendency: 0.00 inches (0.1 hPa) lower than three hours ago
ob: KMCE 251153Z AUTO 00000KT 9SM CLR 16/11 A2991 RMK AO2 SLP126 T01610111 10233 20161 56001
cycle: 12

Station Type Date Time Source
KMCE TAF 2021/09/25 12:22 UTC NOAA

TAF KMCE 251120Z 2512/2612 VRB03KT P6SM SKC

Example: see airport list